KNZY/NZY METAR and TAF weather

Enter ICAO airport designator
Station Type Date Time Source
KNZY METAR 2019/06/17 04:52 UTC NOAA

KNZY 170452Z 21003KT 10SM BKN015 OVC020 18/13 A2989 RMK AO2 SLP123 T01780133


Station Type Date Time Source
KNZY Decoded METAR 2019/06/17 04:52 UTC NOAA

NAS NORTH ISLAND, SAN DIEGO, CA, United States (KNZY) 32-42N 117-13W 14M
Jun 17, 2019 - 12:52 AM EDT / 2019.06.17 0452 UTC
Wind: from the SSW (210 degrees) at 3 MPH (3 KT):0
Visibility: 10 mile(s):0
Sky conditions: overcast
Temperature: 64.0 F (17.8 C)
Dew Point: 55.9 F (13.3 C)
Relative Humidity: 74%
Pressure (altimeter): 29.89 in. Hg (1012 hPa)
ob: KNZY 170452Z 21003KT 10SM BKN015 OVC020 18/13 A2989 RMK AO2 SLP123 T01780133
cycle: 5

Station Type Date Time Source
KNZY TAF 2019/06/16 23:27 UTC NOAA

TAF KNZY 1623/1723 27008KT 9999 OVC013 550006 QNH2981INS
TEMPO 1623/1705 VRB06KT SCT014
FM170500 VRB06KT 9000 BR VCSH SCT008 OVC015 550006 QNH2982INS
TEMPO 1705/1711 8000 -SHRA BR OVC007
FM171100 VRB06KT 9000 BR VCSH OVC009 500000 QNH2983INS
TEMPO 1711/1717 6000 -SHRA BR SCT009 OVC015
FM171700 VRB06KT 9000 BR VCSH BKN012 OVC022 QNH2984INS
TEMPO 1717/1723 23008KT 8000 -SHRA BR BKN008 T16/1713Z T22/1720Z FS30145

Example: see airport list